sensor_id;sensor_type;location;lat;lon;timestamp;temperature;humidity
63039;DHT22;49125;48.812;9.206;2022-08-30T00:02:30;18.30;94.60
63039;DHT22;49125;48.812;9.206;2022-08-30T00:04:56;18.30;94.80
63039;DHT22;49125;48.812;9.206;2022-08-30T00:07:26;18.20;95.00
63039;DHT22;49125;48.812;9.206;2022-08-30T00:09:51;18.20;95.00
63039;DHT22;49125;48.812;9.206;2022-08-30T00:12:17;18.20;95.30
63039;DHT22;49125;48.812;9.206;2022-08-30T00:14:45;18.20;95.50
63039;DHT22;49125;48.812;9.206;2022-08-30T00:17:11;18.20;95.50
63039;DHT22;49125;48.812;9.206;2022-08-30T00:19:36;18.20;95.50
63039;DHT22;49125;48.812;9.206;2022-08-30T00:22:03;18.20;95.50
63039;DHT22;49125;48.812;9.206;2022-08-30T00:24:28;18.20;95.70
63039;DHT22;49125;48.812;9.206;2022-08-30T00:26:54;18.20;95.70
63039;DHT22;49125;48.812;9.206;2022-08-30T00:29:19;18.20;95.80
63039;DHT22;49125;48.812;9.206;2022-08-30T00:31:45;18.20;95.90
63039;DHT22;49125;48.812;9.206;2022-08-30T00:34:11;18.10;96.10
63039;DHT22;49125;48.812;9.206;2022-08-30T00:36:36;18.10;96.00
63039;DHT22;49125;48.812;9.206;2022-08-30T00:39:03;18.00;96.10
63039;DHT22;49125;48.812;9.206;2022-08-30T00:41:29;18.00;95.90
63039;DHT22;49125;48.812;9.206;2022-08-30T00:43:55;18.00;96.10
63039;DHT22;49125;48.812;9.206;2022-08-30T00:46:21;17.90;96.40
63039;DHT22;49125;48.812;9.206;2022-08-30T00:48:48;17.90;96.60
63039;DHT22;49125;48.812;9.206;2022-08-30T00:51:16;17.80;96.60
63039;DHT22;49125;48.812;9.206;2022-08-30T00:53:47;17.80;96.80
63039;DHT22;49125;48.812;9.206;2022-08-30T00:56:16;17.70;96.90
63039;DHT22;49125;48.812;9.206;2022-08-30T00:58:44;17.70;96.90
63039;DHT22;49125;48.812;9.206;2022-08-30T01:01:11;17.70;96.90
63039;DHT22;49125;48.812;9.206;2022-08-30T01:03:37;17.60;97.00
63039;DHT22;49125;48.812;9.206;2022-08-30T01:06:04;17.60;97.10
63039;DHT22;49125;48.812;9.206;2022-08-30T01:08:30;17.60;97.10
63039;DHT22;49125;48.812;9.206;2022-08-30T01:10:56;17.60;97.00
63039;DHT22;49125;48.812;9.206;2022-08-30T01:13:22;17.50;97.00
63039;DHT22;49125;48.812;9.206;2022-08-30T01:15:50;17.50;97.00
63039;DHT22;49125;48.812;9.206;2022-08-30T01:18:16;17.50;97.00
63039;DHT22;49125;48.812;9.206;2022-08-30T01:20:58;17.50;97.20
63039;DHT22;49125;48.812;9.206;2022-08-30T01:23:29;17.40;97.20
63039;DHT22;49125;48.812;9.206;2022-08-30T01:25:56;17.30;97.10
63039;DHT22;49125;48.812;9.206;2022-08-30T01:28:25;17.30;97.20
63039;DHT22;49125;48.812;9.206;2022-08-30T01:30:51;17.20;97.20
63039;DHT22;49125;48.812;9.206;2022-08-30T01:33:18;17.20;97.20
63039;DHT22;49125;48.812;9.206;2022-08-30T01:36:02;17.30;97.40
63039;DHT22;49125;48.812;9.206;2022-08-30T01:38:43;17.20;97.40
63039;DHT22;49125;48.812;9.206;2022-08-30T01:41:29;17.20;97.50
63039;DHT22;49125;48.812;9.206;2022-08-30T01:43:57;17.10;97.60
63039;DHT22;49125;48.812;9.206;2022-08-30T01:46:26;17.10;97.60
63039;DHT22;49125;48.812;9.206;2022-08-30T01:48:56;17.00;97.80
63039;DHT22;49125;48.812;9.206;2022-08-30T01:51:25;17.00;97.90
63039;DHT22;49125;48.812;9.206;2022-08-30T01:53:51;17.00;98.00
63039;DHT22;49125;48.812;9.206;2022-08-30T01:56:16;17.00;98.10
63039;DHT22;49125;48.812;9.206;2022-08-30T01:58:42;17.00;98.30
63039;DHT22;49125;48.812;9.206;2022-08-30T02:01:11;16.90;98.20
63039;DHT22;49125;48.812;9.206;2022-08-30T02:03:38;16.90;98.30
63039;DHT22;49125;48.812;9.206;2022-08-30T02:06:06;16.90;98.40
63039;DHT22;49125;48.812;9.206;2022-08-30T02:08:33;16.80;98.40
63039;DHT22;49125;48.812;9.206;2022-08-30T02:10:59;16.80;98.60
63039;DHT22;49125;48.812;9.206;2022-08-30T02:13:28;16.80;98.70
63039;DHT22;49125;48.812;9.206;2022-08-30T02:15:55;16.80;98.70
63039;DHT22;49125;48.812;9.206;2022-08-30T02:18:22;16.80;98.80
63039;DHT22;49125;48.812;9.206;2022-08-30T02:20:48;16.80;98.80
63039;DHT22;49125;48.812;9.206;2022-08-30T02:23:13;16.70;98.70
63039;DHT22;49125;48.812;9.206;2022-08-30T02:25:39;16.70;98.80
63039;DHT22;49125;48.812;9.206;2022-08-30T02:28:06;16.60;98.80
63039;DHT22;49125;48.812;9.206;2022-08-30T02:30:31;16.60;98.90
63039;DHT22;49125;48.812;9.206;2022-08-30T02:32:57;16.60;99.00
63039;DHT22;49125;48.812;9.206;2022-08-30T02:35:23;16.60;98.90
63039;DHT22;49125;48.812;9.206;2022-08-30T02:37:48;16.60;98.90
63039;DHT22;49125;48.812;9.206;2022-08-30T02:40:14;16.70;98.90
63039;DHT22;49125;48.812;9.206;2022-08-30T02:42:40;16.60;99.00
63039;DHT22;49125;48.812;9.206;2022-08-30T02:45:06;16.60;99.10
63039;DHT22;49125;48.812;9.206;2022-08-30T02:47:33;16.50;99.20
63039;DHT22;49125;48.812;9.206;2022-08-30T02:49:58;16.50;99.20
63039;DHT22;49125;48.812;9.206;2022-08-30T02:52:24;16.50;99.30
63039;DHT22;49125;48.812;9.206;2022-08-30T02:54:55;16.50;99.40
63039;DHT22;49125;48.812;9.206;2022-08-30T02:57:21;16.50;99.50
63039;DHT22;49125;48.812;9.206;2022-08-30T02:59:49;16.50;99.40
63039;DHT22;49125;48.812;9.206;2022-08-30T03:02:15;16.50;99.50
63039;DHT22;49125;48.812;9.206;2022-08-30T03:04:41;16.40;99.50
63039;DHT22;49125;48.812;9.206;2022-08-30T03:07:09;16.40;99.50
63039;DHT22;49125;48.812;9.206;2022-08-30T03:09:38;16.30;99.50
63039;DHT22;49125;48.812;9.206;2022-08-30T03:12:04;16.30;99.60
63039;DHT22;49125;48.812;9.206;2022-08-30T03:14:34;16.30;99.60
63039;DHT22;49125;48.812;9.206;2022-08-30T03:17:05;16.30;99.70
63039;DHT22;49125;48.812;9.206;2022-08-30T03:19:34;16.30;99.80
63039;DHT22;49125;48.812;9.206;2022-08-30T03:22:02;16.30;99.90
63039;DHT22;49125;48.812;9.206;2022-08-30T03:24:28;16.20;99.90
63039;DHT22;49125;48.812;9.206;2022-08-30T03:26:53;16.20;99.90
63039;DHT22;49125;48.812;9.206;2022-08-30T03:29:19;16.20;99.90
63039;DHT22;49125;48.812;9.206;2022-08-30T03:31:45;16.20;99.90
63039;DHT22;49125;48.812;9.206;2022-08-30T03:34:10;16.10;99.90
63039;DHT22;49125;48.812;9.206;2022-08-30T03:36:37;16.10;99.90
63039;DHT22;49125;48.812;9.206;2022-08-30T03:39:04;16.10;99.90
63039;DHT22;49125;48.812;9.206;2022-08-30T03:41:30;16.10;99.90
63039;DHT22;49125;48.812;9.206;2022-08-30T03:43:57;16.10;99.90
63039;DHT22;49125;48.812;9.206;2022-08-30T03:46:22;16.10;99.90
63039;DHT22;49125;48.812;9.206;2022-08-30T03:48:48;16.10;99.90
63039;DHT22;49125;48.812;9.206;2022-08-30T03:51:13;16.10;99.90
63039;DHT22;49125;48.812;9.206;2022-08-30T03:53:39;16.10;99.90
63039;DHT22;49125;48.812;9.206;2022-08-30T03:56:04;16.10;99.90
63039;DHT22;49125;48.812;9.206;2022-08-30T03:58:30;16.00;99.90
63039;DHT22;49125;48.812;9.206;2022-08-30T04:00:56;16.00;99.90
63039;DHT22;49125;48.812;9.206;2022-08-30T04:03:21;15.90;99.90
63039;DHT22;49125;48.812;9.206;2022-08-30T04:05:53;15.90;99.90
63039;DHT22;49125;48.812;9.206;2022-08-30T04:08:20;16.00;99.90
63039;DHT22;49125;48.812;9.206;2022-08-30T04:10:46;16.00;99.90
63039;DHT22;49125;48.812;9.206;2022-08-30T04:13:13;15.90;99.90
63039;DHT22;49125;48.812;9.206;2022-08-30T04:15:38;15.90;99.90
63039;DHT22;49125;48.812;9.206;2022-08-30T04:18:04;15.90;99.90
63039;DHT22;49125;48.812;9.206;2022-08-30T04:20:30;15.90;99.90
63039;DHT22;49125;48.812;9.206;2022-08-30T04:22:56;15.90;99.90
63039;DHT22;49125;48.812;9.206;2022-08-30T04:25:22;15.90;99.90
63039;DHT22;49125;48.812;9.206;2022-08-30T04:27:48;15.90;99.90
63039;DHT22;49125;48.812;9.206;2022-08-30T04:30:14;15.90;99.90
63039;DHT22;49125;48.812;9.206;2022-08-30T04:32:40;16.00;99.90
63039;DHT22;49125;48.812;9.206;2022-08-30T04:35:06;15.90;99.90
63039;DHT22;49125;48.812;9.206;2022-08-30T04:37:32;15.90;99.90
63039;DHT22;49125;48.812;9.206;2022-08-30T04:39:58;15.90;99.90
63039;DHT22;49125;48.812;9.206;2022-08-30T04:42:29;15.90;99.90
63039;DHT22;49125;48.812;9.206;2022-08-30T04:44:56;15.90;99.90
63039;DHT22;49125;48.812;9.206;2022-08-30T04:47:22;15.90;99.90
63039;DHT22;49125;48.812;9.206;2022-08-30T04:49:48;16.00;99.90
63039;DHT22;49125;48.812;9.206;2022-08-30T04:52:13;15.90;99.90
63039;DHT22;49125;48.812;9.206;2022-08-30T04:54:39;16.00;99.90
63039;DHT22;49125;48.812;9.206;2022-08-30T04:57:05;16.00;99.90
63039;DHT22;49125;48.812;9.206;2022-08-30T04:59:31;16.10;99.90
63039;DHT22;49125;48.812;9.206;2022-08-30T05:01:57;16.10;99.90
63039;DHT22;49125;48.812;9.206;2022-08-30T05:04:26;16.20;99.90
63039;DHT22;49125;48.812;9.206;2022-08-30T05:06:52;16.20;99.90
63039;DHT22;49125;48.812;9.206;2022-08-30T05:09:17;16.30;99.90
63039;DHT22;49125;48.812;9.206;2022-08-30T05:11:43;16.30;99.90
63039;DHT22;49125;48.812;9.206;2022-08-30T05:14:10;16.40;99.90
63039;DHT22;49125;48.812;9.206;2022-08-30T05:16:36;16.50;99.90
63039;DHT22;49125;48.812;9.206;2022-08-30T05:19:01;16.60;99.90
63039;DHT22;49125;48.812;9.206;2022-08-30T05:21:27;16.70;99.90
63039;DHT22;49125;48.812;9.206;2022-08-30T05:23:58;16.80;99.90
63039;DHT22;49125;48.812;9.206;2022-08-30T05:26:30;16.90;99.90
63039;DHT22;49125;48.812;9.206;2022-08-30T05:28:56;17.10;99.90
63039;DHT22;49125;48.812;9.206;2022-08-30T05:31:33;17.20;99.90
63039;DHT22;49125;48.812;9.206;2022-08-30T05:33:59;17.40;99.90
63039;DHT22;49125;48.812;9.206;2022-08-30T05:36:27;17.60;99.90
63039;DHT22;49125;48.812;9.206;2022-08-30T05:38:53;17.80;99.90
63039;DHT22;49125;48.812;9.206;2022-08-30T05:41:20;17.90;99.90
63039;DHT22;49125;48.812;9.206;2022-08-30T05:43:46;18.00;99.90
63039;DHT22;49125;48.812;9.206;2022-08-30T05:46:13;18.10;99.90
63039;DHT22;49125;48.812;9.206;2022-08-30T05:48:44;18.10;99.90
63039;DHT22;49125;48.812;9.206;2022-08-30T05:51:12;18.20;99.90
63039;DHT22;49125;48.812;9.206;2022-08-30T05:53:39;18.20;99.90
63039;DHT22;49125;48.812;9.206;2022-08-30T05:56:11;18.20;99.90
63039;DHT22;49125;48.812;9.206;2022-08-30T05:58:38;18.30;99.90
63039;DHT22;49125;48.812;9.206;2022-08-30T06:01:04;18.30;99.90
63039;DHT22;49125;48.812;9.206;2022-08-30T06:03:30;18.40;99.90
63039;DHT22;49125;48.812;9.206;2022-08-30T06:05:58;18.50;99.80
63039;DHT22;49125;48.812;9.206;2022-08-30T06:08:24;18.60;99.50
63039;DHT22;49125;48.812;9.206;2022-08-30T06:10:50;18.70;99.70
63039;DHT22;49125;48.812;9.206;2022-08-30T06:13:16;18.90;99.30
63039;DHT22;49125;48.812;9.206;2022-08-30T06:15:41;19.10;99.00
63039;DHT22;49125;48.812;9.206;2022-08-30T06:18:12;19.20;99.20
63039;DHT22;49125;48.812;9.206;2022-08-30T06:20:42;19.50;99.20
63039;DHT22;49125;48.812;9.206;2022-08-30T06:23:09;19.80;99.00
63039;DHT22;49125;48.812;9.206;2022-08-30T06:25:36;19.80;97.80
63039;DHT22;49125;48.812;9.206;2022-08-30T06:28:03;19.90;97.70
63039;DHT22;49125;48.812;9.206;2022-08-30T06:30:28;20.00;97.40
63039;DHT22;49125;48.812;9.206;2022-08-30T06:32:54;20.10;97.20
63039;DHT22;49125;48.812;9.206;2022-08-30T06:35:20;20.40;97.10
63039;DHT22;49125;48.812;9.206;2022-08-30T06:37:45;20.60;96.30
63039;DHT22;49125;48.812;9.206;2022-08-30T06:40:11;20.80;96.30
63039;DHT22;49125;48.812;9.206;2022-08-30T06:42:37;21.00;95.70
63039;DHT22;49125;48.812;9.206;2022-08-30T06:45:03;21.10;95.40
63039;DHT22;49125;48.812;9.206;2022-08-30T06:47:29;21.10;94.70
63039;DHT22;49125;48.812;9.206;2022-08-30T06:49:56;21.10;94.70
63039;DHT22;49125;48.812;9.206;2022-08-30T06:52:22;21.10;94.90
63039;DHT22;49125;48.812;9.206;2022-08-30T06:54:47;21.30;95.40
63039;DHT22;49125;48.812;9.206;2022-08-30T06:57:13;21.50;95.00
63039;DHT22;49125;48.812;9.206;2022-08-30T06:59:39;21.50;94.60
63039;DHT22;49125;48.812;9.206;2022-08-30T07:02:05;21.70;94.70
63039;DHT22;49125;48.812;9.206;2022-08-30T07:04:31;21.80;94.20
63039;DHT22;49125;48.812;9.206;2022-08-30T07:06:57;21.70;93.70
63039;DHT22;49125;48.812;9.206;2022-08-30T07:09:23;21.70;93.90
63039;DHT22;49125;48.812;9.206;2022-08-30T07:11:50;21.80;93.80
63039;DHT22;49125;48.812;9.206;2022-08-30T07:14:16;22.00;93.80
63039;DHT22;49125;48.812;9.206;2022-08-30T07:16:43;22.30;93.40
63039;DHT22;49125;48.812;9.206;2022-08-30T07:19:08;22.40;92.70
63039;DHT22;49125;48.812;9.206;2022-08-30T07:21:39;22.50;92.30
63039;DHT22;49125;48.812;9.206;2022-08-30T07:24:07;22.80;92.20
63039;DHT22;49125;48.812;9.206;2022-08-30T07:26:39;23.00;91.90
63039;DHT22;49125;48.812;9.206;2022-08-30T07:29:06;23.30;91.60
63039;DHT22;49125;48.812;9.206;2022-08-30T07:31:33;23.70;90.80
63039;DHT22;49125;48.812;9.206;2022-08-30T07:34:01;23.90;89.80
63039;DHT22;49125;48.812;9.206;2022-08-30T07:36:26;24.30;90.30
63039;DHT22;49125;48.812;9.206;2022-08-30T07:38:52;24.60;89.50
63039;DHT22;49125;48.812;9.206;2022-08-30T07:41:27;25.00;88.40
63039;DHT22;49125;48.812;9.206;2022-08-30T07:43:53;25.40;86.40
63039;DHT22;49125;48.812;9.206;2022-08-30T07:46:20;25.50;86.60
63039;DHT22;49125;48.812;9.206;2022-08-30T07:48:46;25.60;83.60
63039;DHT22;49125;48.812;9.206;2022-08-30T07:51:14;25.50;83.10
63039;DHT22;49125;48.812;9.206;2022-08-30T07:53:40;25.70;81.00
63039;DHT22;49125;48.812;9.206;2022-08-30T07:56:06;25.70;82.90
63039;DHT22;49125;48.812;9.206;2022-08-30T07:58:32;25.80;83.10
63039;DHT22;49125;48.812;9.206;2022-08-30T08:00:59;25.80;81.70
63039;DHT22;49125;48.812;9.206;2022-08-30T08:03:26;25.70;80.30
63039;DHT22;49125;48.812;9.206;2022-08-30T08:05:52;25.70;79.70
63039;DHT22;49125;48.812;9.206;2022-08-30T08:08:19;25.70;79.80
63039;DHT22;49125;48.812;9.206;2022-08-30T08:10:44;25.60;80.90
63039;DHT22;49125;48.812;9.206;2022-08-30T08:13:10;25.70;79.00
63039;DHT22;49125;48.812;9.206;2022-08-30T08:15:36;25.80;80.10
63039;DHT22;49125;48.812;9.206;2022-08-30T08:18:03;26.10;78.60
63039;DHT22;49125;48.812;9.206;2022-08-30T08:20:29;26.50;80.60
63039;DHT22;49125;48.812;9.206;2022-08-30T08:22:58;26.80;75.90
63039;DHT22;49125;48.812;9.206;2022-08-30T08:25:24;26.90;76.90
63039;DHT22;49125;48.812;9.206;2022-08-30T08:27:50;26.90;75.70
63039;DHT22;49125;48.812;9.206;2022-08-30T08:30:20;27.10;75.90
63039;DHT22;49125;48.812;9.206;2022-08-30T08:32:47;27.10;74.10
63039;DHT22;49125;48.812;9.206;2022-08-30T08:35:14;27.10;74.90
63039;DHT22;49125;48.812;9.206;2022-08-30T08:37:40;27.10;74.80
63039;DHT22;49125;48.812;9.206;2022-08-30T08:40:07;27.00;71.90
63039;DHT22;49125;48.812;9.206;2022-08-30T08:42:49;27.00;74.50
63039;DHT22;49125;48.812;9.206;2022-08-30T08:46:45;27.20;75.50
63039;DHT22;49125;48.812;9.206;2022-08-30T08:48:50;27.60;72.10
63039;DHT22;49125;48.812;9.206;2022-08-30T08:51:19;28.00;73.40
63039;DHT22;49125;48.812;9.206;2022-08-30T08:56:35;28.30;68.40
63039;DHT22;49125;48.812;9.206;2022-08-30T08:59:04;28.20;68.70
63039;DHT22;49125;48.812;9.206;2022-08-30T09:01:34;28.30;68.50
63039;DHT22;49125;48.812;9.206;2022-08-30T09:04:09;28.50;69.80
63039;DHT22;49125;48.812;9.206;2022-08-30T09:06:54;28.70;67.30
63039;DHT22;49125;48.812;9.206;2022-08-30T09:09:25;29.00;69.10
63039;DHT22;49125;48.812;9.206;2022-08-30T09:11:52;29.10;66.80
63039;DHT22;49125;48.812;9.206;2022-08-30T09:14:22;29.30;68.00
63039;DHT22;49125;48.812;9.206;2022-08-30T09:17:05;29.60;66.80
63039;DHT22;49125;48.812;9.206;2022-08-30T09:24:46;29.90;65.70
63039;DHT22;49125;48.812;9.206;2022-08-30T09:27:35;29.90;62.50
63039;DHT22;49125;48.812;9.206;2022-08-30T09:30:18;29.90;64.40
63039;DHT22;49125;48.812;9.206;2022-08-30T09:32:52;30.20;64.20
63039;DHT22;49125;48.812;9.206;2022-08-30T09:35:22;30.50;61.80
63039;DHT22;49125;48.812;9.206;2022-08-30T09:37:56;30.60;61.50
63039;DHT22;49125;48.812;9.206;2022-08-30T09:40:39;30.60;60.70
63039;DHT22;49125;48.812;9.206;2022-08-30T09:46:05;30.80;60.30
63039;DHT22;49125;48.812;9.206;2022-08-30T09:48:54;31.00;61.30
63039;DHT22;49125;48.812;9.206;2022-08-30T09:51:39;31.10;58.30
63039;DHT22;49125;48.812;9.206;2022-08-30T09:54:22;31.20;59.10
63039;DHT22;49125;48.812;9.206;2022-08-30T10:02:00;31.60;56.70
63039;DHT22;49125;48.812;9.206;2022-08-30T10:04:42;31.60;58.70
63039;DHT22;49125;48.812;9.206;2022-08-30T10:07:12;31.90;57.60
63039;DHT22;49125;48.812;9.206;2022-08-30T10:15:34;32.20;57.40
63039;DHT22;49125;48.812;9.206;2022-08-30T10:18:09;32.50;56.20
63039;DHT22;49125;48.812;9.206;2022-08-30T10:21:06;32.90;54.70
63039;DHT22;49125;48.812;9.206;2022-08-30T10:23:40;33.20;53.30
63039;DHT22;49125;48.812;9.206;2022-08-30T10:29:00;32.90;51.20
63039;DHT22;49125;48.812;9.206;2022-08-30T10:32:04;33.00;49.00
63039;DHT22;49125;48.812;9.206;2022-08-30T10:34:36;32.80;47.90
63039;DHT22;49125;48.812;9.206;2022-08-30T10:37:10;32.60;49.70
63039;DHT22;49125;48.812;9.206;2022-08-30T10:39:52;32.80;48.20
63039;DHT22;49125;48.812;9.206;2022-08-30T10:42:24;33.00;51.50
63039;DHT22;49125;48.812;9.206;2022-08-30T10:44:55;33.60;48.20
63039;DHT22;49125;48.812;9.206;2022-08-30T10:47:40;34.00;45.40
63039;DHT22;49125;48.812;9.206;2022-08-30T10:50:18;34.00;46.00
63039;DHT22;49125;48.812;9.206;2022-08-30T10:52:58;34.20;45.90
63039;DHT22;49125;48.812;9.206;2022-08-30T10:55:32;34.40;46.10
63039;DHT22;49125;48.812;9.206;2022-08-30T10:58:01;35.00;45.50
63039;DHT22;49125;48.812;9.206;2022-08-30T11:09:28;35.90;41.50
63039;DHT22;49125;48.812;9.206;2022-08-30T11:14:29;36.20;39.10
63039;DHT22;49125;48.812;9.206;2022-08-30T11:16:58;35.70;40.60
63039;DHT22;49125;48.812;9.206;2022-08-30T11:19:27;35.50;41.10
63039;DHT22;49125;48.812;9.206;2022-08-30T11:24:57;35.80;39.70
63039;DHT22;49125;48.812;9.206;2022-08-30T11:27:45;36.20;40.90
63039;DHT22;49125;48.812;9.206;2022-08-30T11:33:04;36.30;39.80
63039;DHT22;49125;48.812;9.206;2022-08-30T11:37:59;35.60;40.60
63039;DHT22;49125;48.812;9.206;2022-08-30T11:42:53;35.80;40.10
63039;DHT22;49125;48.812;9.206;2022-08-30T11:53:40;35.50;40.90
63039;DHT22;49125;48.812;9.206;2022-08-30T11:56:32;35.20;40.30
63039;DHT22;49125;48.812;9.206;2022-08-30T11:59:10;34.70;41.80
63039;DHT22;49125;48.812;9.206;2022-08-30T12:01:43;34.30;41.30
63039;DHT22;49125;48.812;9.206;2022-08-30T12:04:25;34.20;43.90
63039;DHT22;49125;48.812;9.206;2022-08-30T12:17:24;33.40;42.40
63039;DHT22;49125;48.812;9.206;2022-08-30T12:20:39;33.40;42.90
63039;DHT22;49125;48.812;9.206;2022-08-30T12:23:22;33.20;42.50
63039;DHT22;49125;48.812;9.206;2022-08-30T12:28:37;33.20;44.50
63039;DHT22;49125;48.812;9.206;2022-08-30T12:31:21;33.20;44.70
63039;DHT22;49125;48.812;9.206;2022-08-30T12:33:51;33.20;42.30
63039;DHT22;49125;48.812;9.206;2022-08-30T12:36:46;32.90;43.20
63039;DHT22;49125;48.812;9.206;2022-08-30T12:39:16;32.80;42.30
63039;DHT22;49125;48.812;9.206;2022-08-30T12:41:43;33.20;43.70
63039;DHT22;49125;48.812;9.206;2022-08-30T12:44:15;33.90;43.60
63039;DHT22;49125;48.812;9.206;2022-08-30T12:46:42;34.40;40.80
63039;DHT22;49125;48.812;9.206;2022-08-30T12:49:12;34.90;41.90
63039;DHT22;49125;48.812;9.206;2022-08-30T12:51:41;35.80;41.00
63039;DHT22;49125;48.812;9.206;2022-08-30T12:54:33;37.30;41.70
63039;DHT22;49125;48.812;9.206;2022-08-30T12:57:04;38.60;39.20
63039;DHT22;49125;48.812;9.206;2022-08-30T12:59:45;39.20;37.80
63039;DHT22;49125;48.812;9.206;2022-08-30T13:02:16;38.60;36.10
63039;DHT22;49125;48.812;9.206;2022-08-30T13:04:43;38.30;36.30
63039;DHT22;49125;48.812;9.206;2022-08-30T13:07:23;37.90;37.10
63039;DHT22;49125;48.812;9.206;2022-08-30T13:09:50;37.30;38.40
63039;DHT22;49125;48.812;9.206;2022-08-30T13:12:26;37.20;37.30
63039;DHT22;49125;48.812;9.206;2022-08-30T13:14:52;37.20;37.30
63039;DHT22;49125;48.812;9.206;2022-08-30T13:19:57;37.50;38.60
63039;DHT22;49125;48.812;9.206;2022-08-30T13:22:33;37.90;36.50
63039;DHT22;49125;48.812;9.206;2022-08-30T13:25:00;38.30;35.80
63039;DHT22;49125;48.812;9.206;2022-08-30T13:27:27;38.90;37.40
63039;DHT22;49125;48.812;9.206;2022-08-30T13:29:53;39.10;34.50
63039;DHT22;49125;48.812;9.206;2022-08-30T13:32:20;39.30;36.00
63039;DHT22;49125;48.812;9.206;2022-08-30T13:34:45;40.20;35.30
63039;DHT22;49125;48.812;9.206;2022-08-30T13:37:22;40.70;34.50
63039;DHT22;49125;48.812;9.206;2022-08-30T13:39:49;40.90;32.80
63039;DHT22;49125;48.812;9.206;2022-08-30T13:42:14;41.00;33.60
63039;DHT22;49125;48.812;9.206;2022-08-30T13:44:40;40.60;32.90
63039;DHT22;49125;48.812;9.206;2022-08-30T13:47:06;40.30;32.80
63039;DHT22;49125;48.812;9.206;2022-08-30T13:49:34;40.00;33.40
63039;DHT22;49125;48.812;9.206;2022-08-30T13:52:05;39.80;33.60
63039;DHT22;49125;48.812;9.206;2022-08-30T13:54:31;39.90;34.20
63039;DHT22;49125;48.812;9.206;2022-08-30T13:56:56;40.40;32.50
63039;DHT22;49125;48.812;9.206;2022-08-30T13:59:22;40.90;33.40
63039;DHT22;49125;48.812;9.206;2022-08-30T14:01:51;41.70;33.40
63039;DHT22;49125;48.812;9.206;2022-08-30T14:04:17;41.50;32.10
63039;DHT22;49125;48.812;9.206;2022-08-30T14:06:42;41.90;32.40
63039;DHT22;49125;48.812;9.206;2022-08-30T14:09:08;41.80;30.60
63039;DHT22;49125;48.812;9.206;2022-08-30T14:11:35;41.10;30.60
63039;DHT22;49125;48.812;9.206;2022-08-30T14:14:01;40.40;31.70
63039;DHT22;49125;48.812;9.206;2022-08-30T14:16:27;39.20;31.60
63039;DHT22;49125;48.812;9.206;2022-08-30T14:18:54;38.60;32.80
63039;DHT22;49125;48.812;9.206;2022-08-30T14:21:19;37.40;32.00
63039;DHT22;49125;48.812;9.206;2022-08-30T14:23:45;36.50;33.40
63039;DHT22;49125;48.812;9.206;2022-08-30T14:26:27;36.10;35.60
63039;DHT22;49125;48.812;9.206;2022-08-30T14:28:53;36.30;35.50
63039;DHT22;49125;48.812;9.206;2022-08-30T14:31:19;37.00;35.90
63039;DHT22;49125;48.812;9.206;2022-08-30T14:33:45;37.50;34.90
63039;DHT22;49125;48.812;9.206;2022-08-30T14:36:11;37.70;34.60
63039;DHT22;49125;48.812;9.206;2022-08-30T14:38:39;38.10;35.20
63039;DHT22;49125;48.812;9.206;2022-08-30T14:41:06;38.60;34.90
63039;DHT22;49125;48.812;9.206;2022-08-30T14:43:32;38.80;35.80
63039;DHT22;49125;48.812;9.206;2022-08-30T14:45:59;38.80;35.40
63039;DHT22;49125;48.812;9.206;2022-08-30T14:48:24;38.50;33.80
63039;DHT22;49125;48.812;9.206;2022-08-30T14:50:50;37.80;34.30
63039;DHT22;49125;48.812;9.206;2022-08-30T14:53:16;37.40;35.70
63039;DHT22;49125;48.812;9.206;2022-08-30T14:55:41;37.40;35.20
63039;DHT22;49125;48.812;9.206;2022-08-30T14:58:07;37.40;35.90
63039;DHT22;49125;48.812;9.206;2022-08-30T15:00:35;37.50;35.70
63039;DHT22;49125;48.812;9.206;2022-08-30T15:03:00;37.40;34.20
63039;DHT22;49125;48.812;9.206;2022-08-30T15:05:26;37.10;35.10
63039;DHT22;49125;48.812;9.206;2022-08-30T15:07:51;37.20;34.40
63039;DHT22;49125;48.812;9.206;2022-08-30T15:10:19;36.70;35.10
63039;DHT22;49125;48.812;9.206;2022-08-30T15:12:49;36.10;35.50
63039;DHT22;49125;48.812;9.206;2022-08-30T15:15:17;36.10;35.80
63039;DHT22;49125;48.812;9.206;2022-08-30T15:17:44;36.40;35.80
63039;DHT22;49125;48.812;9.206;2022-08-30T15:20:10;36.30;36.10
63039;DHT22;49125;48.812;9.206;2022-08-30T15:22:36;36.20;36.00
63039;DHT22;49125;48.812;9.206;2022-08-30T15:25:05;36.00;36.30
63039;DHT22;49125;48.812;9.206;2022-08-30T15:27:30;35.40;36.00
63039;DHT22;49125;48.812;9.206;2022-08-30T15:29:56;34.90;36.70
63039;DHT22;49125;48.812;9.206;2022-08-30T15:32:21;34.10;37.10
63039;DHT22;49125;48.812;9.206;2022-08-30T15:34:47;33.50;37.70
63039;DHT22;49125;48.812;9.206;2022-08-30T15:37:12;32.90;38.20
63039;DHT22;49125;48.812;9.206;2022-08-30T15:39:49;32.60;38.70
63039;DHT22;49125;48.812;9.206;2022-08-30T15:42:16;32.30;39.30
63039;DHT22;49125;48.812;9.206;2022-08-30T15:44:44;32.10;39.60
63039;DHT22;49125;48.812;9.206;2022-08-30T15:47:10;32.00;39.80
63039;DHT22;49125;48.812;9.206;2022-08-30T15:49:35;31.70;39.50
63039;DHT22;49125;48.812;9.206;2022-08-30T15:52:03;31.50;40.00
63039;DHT22;49125;48.812;9.206;2022-08-30T15:54:29;31.40;40.40
63039;DHT22;49125;48.812;9.206;2022-08-30T15:56:55;31.20;40.20
63039;DHT22;49125;48.812;9.206;2022-08-30T15:59:28;31.00;40.80
63039;DHT22;49125;48.812;9.206;2022-08-30T16:01:54;30.80;41.30
63039;DHT22;49125;48.812;9.206;2022-08-30T16:04:20;30.70;41.60
63039;DHT22;49125;48.812;9.206;2022-08-30T16:06:47;30.60;42.30
63039;DHT22;49125;48.812;9.206;2022-08-30T16:09:14;30.40;42.20
63039;DHT22;49125;48.812;9.206;2022-08-30T16:11:42;30.20;41.70
63039;DHT22;49125;48.812;9.206;2022-08-30T16:14:08;30.00;41.60
63039;DHT22;49125;48.812;9.206;2022-08-30T16:16:34;29.90;42.30
63039;DHT22;49125;48.812;9.206;2022-08-30T16:19:02;29.80;42.30
63039;DHT22;49125;48.812;9.206;2022-08-30T16:21:29;29.70;42.90
63039;DHT22;49125;48.812;9.206;2022-08-30T16:23:58;29.60;42.50
63039;DHT22;49125;48.812;9.206;2022-08-30T16:26:25;29.60;42.80
63039;DHT22;49125;48.812;9.206;2022-08-30T16:28:50;29.50;42.80
63039;DHT22;49125;48.812;9.206;2022-08-30T16:31:17;29.40;43.00
63039;DHT22;49125;48.812;9.206;2022-08-30T16:33:43;29.30;42.80
63039;DHT22;49125;48.812;9.206;2022-08-30T16:36:12;29.20;43.10
63039;DHT22;49125;48.812;9.206;2022-08-30T16:38:38;29.20;43.70
63039;DHT22;49125;48.812;9.206;2022-08-30T16:41:06;29.20;43.80
63039;DHT22;49125;48.812;9.206;2022-08-30T16:43:32;29.10;43.30
63039;DHT22;49125;48.812;9.206;2022-08-30T16:46:02;29.00;44.00
63039;DHT22;49125;48.812;9.206;2022-08-30T16:48:29;28.90;43.30
63039;DHT22;49125;48.812;9.206;2022-08-30T16:50:55;28.80;43.60
63039;DHT22;49125;48.812;9.206;2022-08-30T16:53:21;28.60;44.00